Prairie Center, Illinois
Current Conditions -  °F | °C
As of 9:35 PM on Friday 28 Nov 2014 (Local Time) from KVYS Reporting Station
Clear Clear  
Wind Chill: 29°   Ceiling: Unl
Heat Index: 35°   Visibility: 7mi
Dew Point: 32°   Wind: 8mph
Humidity: 88%   Direction: 160°SSE
Pressure: 29.89"   Gusts: NA
Location:  41.4349°N, 88.8687°W
Report Text: KVYS 290335Z AUTO 16007KT 7SM CLR 02/00 A2989 RMK AO2 T00171001
Loading
Personal Weather Stations






























Interactive Weather Map New forecast layout! Learn more

10-Day Weather Forecast

Advertisements
Track Severe Weather on mobile